Time;durP1;ratioP1;P1;durP2;ratioP2;P2;SDS_P1;SDS_P2;PMS_P1;PMS_P2;Temp;Humidity;BMP_temperature;BMP_pressure;BME280_temperature;BME280_humidity;BME280_pressure;Samples;Min_cycle;Max_cycle;Signal;HPM_P1;HPM_P2
2024/03/30 00:02:50;;;;;;;76.50;13.67;;;18.20;25.10;;;;;;10420339;28;20298;-71
2024/03/30 00:07:52;;;;;;;80.43;14.63;;;18.10;25.70;;;;;;10423037;28;20327;-71
2024/03/30 00:12:56;;;;;;;49.03;11.87;;;18.10;25.60;;;;;;10423537;28;20283;-71
2024/03/30 00:17:59;;;;;;;67.67;13.07;;;18.10;25.60;;;;;;10422679;28;20771;-71
2024/03/30 00:23:01;;;;;;;79.40;13.83;;;18.00;25.50;;;;;;10426487;28;20308;-71
2024/03/30 00:28:06;;;;;;;56.90;10.87;;;18.10;25.60;;;;;;10424183;28;20250;-71
2024/03/30 00:33:08;;;;;;;64.13;13.13;;;18.00;25.40;;;;;;10423929;28;20673;-71
2024/03/30 00:38:10;;;;;;;64.23;11.57;;;18.00;25.50;;;;;;10422727;28;20298;-71
2024/03/30 00:43:14;;;;;;;70.20;12.00;;;18.00;25.80;;;;;;10425284;28;20332;-71
2024/03/30 00:48:17;;;;;;;63.90;12.50;;;18.00;25.80;;;;;;10419682;28;20306;-71
2024/03/30 00:53:19;;;;;;;44.90;10.87;;;18.00;26.00;;;;;;10420194;28;20350;-71
2024/03/30 00:58:23;;;;;;;63.83;11.63;;;17.90;26.20;;;;;;10422186;28;20649;-71
2024/03/30 01:03:25;;;;;;;63.20;12.20;;;17.80;26.30;;;;;;10417660;28;20311;-71
2024/03/30 01:08:28;;;;;;;50.10;10.93;;;17.70;26.00;;;;;;10419534;28;20249;-71
2024/03/30 01:13:32;;;;;;;50.90;9.97;;;17.50;26.10;;;;;;10416852;28;20322;-71
2024/03/30 01:18:35;;;;;;;67.37;11.97;;;17.40;26.30;;;;;;10427689;28;20252;-71
2024/03/30 01:23:37;;;;;;;69.63;12.20;;;17.30;26.00;;;;;;10440169;28;20253;-71
2024/03/30 01:28:43;;;;;;;68.53;12.13;;;17.10;26.10;;;;;;10424214;28;20727;-71
2024/03/30 01:33:46;;;;;;;72.20;11.97;;;17.00;26.40;;;;;;10420075;28;20244;-71
2024/03/30 01:38:48;;;;;;;77.07;11.73;;;17.00;25.90;;;;;;10424037;28;20256;-71
2024/03/30 01:43:52;;;;;;;73.13;12.67;;;16.90;25.90;;;;;;10418757;28;20286;-71
2024/03/30 01:48:55;;;;;;;73.60;11.80;;;16.80;25.70;;;;;;10418022;28;20707;-71
2024/03/30 01:53:59;;;;;;;67.00;12.97;;;16.80;25.70;;;;;;10436022;28;20248;-71
2024/03/30 01:59:04;;;;;;;56.53;11.13;;;16.80;25.70;;;;;;10423518;28;20283;-71
2024/03/30 02:04:07;;;;;;;53.37;11.13;;;16.90;25.60;;;;;;10415140;28;20248;-71
2024/03/30 02:09:10;;;;;;;60.60;11.43;;;16.90;25.70;;;;;;10422453;28;20323;-71
2024/03/30 02:14:14;;;;;;;55.53;9.93;;;17.00;26.30;;;;;;10415053;28;20256;-71
2024/03/30 02:19:20;;;;;;;66.53;12.23;;;17.00;26.40;;;;;;10423476;28;20263;-71
2024/03/30 02:24:23;;;;;;;54.77;10.07;;;17.00;26.20;;;;;;10423148;28;20248;-71
2024/03/30 02:29:31;;;;;;;52.47;11.17;;;16.90;26.10;;;;;;10417687;28;20248;-71
2024/03/30 02:34:34;;;;;;;71.80;12.10;;;16.80;26.30;;;;;;10412082;28;20295;-72
2024/03/30 02:39:37;;;;;;;61.90;11.53;;;16.80;26.30;;;;;;10417297;28;20244;-72
2024/03/30 02:44:39;;;;;;;46.40;10.17;;;16.70;26.50;;;;;;10416226;28;20360;-72
2024/03/30 02:49:41;;;;;;;54.70;11.20;;;16.50;26.50;;;;;;10417576;28;20323;-72
2024/03/30 02:54:45;;;;;;;59.80;10.87;;;16.40;26.70;;;;;;10420256;28;20796;-71
2024/03/30 02:59:47;;;;;;;65.27;11.70;;;16.20;26.90;;;;;;10422728;28;20263;-71
2024/03/30 03:04:49;;;;;;;60.87;11.43;;;16.10;26.90;;;;;;10416856;28;20252;-71
2024/03/30 03:09:53;;;;;;;65.30;11.67;;;16.00;27.00;;;;;;10433280;28;20302;-71
2024/03/30 03:14:55;;;;;;;41.60;8.30;;;16.00;27.20;;;;;;10440393;28;20311;-71
2024/03/30 03:19:57;;;;;;;52.73;9.43;;;15.90;27.20;;;;;;10423395;28;20780;-71
2024/03/30 03:25:01;;;;;;;53.57;10.60;;;15.80;27.20;;;;;;10438160;28;20312;-71
2024/03/30 03:30:04;;;;;;;47.13;10.13;;;15.70;27.20;;;;;;10422881;28;20253;-71
2024/03/30 03:35:06;;;;;;;50.40;10.30;;;15.60;27.90;;;;;;10426295;28;20256;-71
2024/03/30 03:40:10;;;;;;;49.37;10.83;;;15.60;27.30;;;;;;10428329;28;20283;-71
2024/03/30 03:45:13;;;;;;;48.77;10.13;;;15.50;27.50;;;;;;10420702;28;20256;-72
2024/03/30 03:50:15;;;;;;;50.67;10.00;;;15.40;27.50;;;;;;10427102;28;20245;-71
2024/03/30 03:55:18;;;;;;;47.40;10.07;;;15.40;27.60;;;;;;10441995;28;20357;-71
2024/03/30 04:00:21;;;;;;;46.47;9.27;;;15.30;27.70;;;;;;10439093;28;20249;-71
2024/03/30 04:05:23;;;;;;;58.97;10.23;;;15.20;27.60;;;;;;10424810;28;20303;-71
2024/03/30 04:10:26;;;;;;;46.73;8.57;;;15.10;27.50;;;;;;10438639;28;20255;-71
2024/03/30 04:15:29;;;;;;;37.33;7.67;;;15.10;27.80;;;;;;10442059;28;20241;-71
2024/03/30 04:20:31;;;;;;;55.97;9.23;;;15.00;27.70;;;;;;10425594;28;20253;-71
2024/03/30 04:25:34;;;;;;;41.27;8.20;;;15.00;28.00;;;;;;10419464;28;20346;-71
2024/03/30 04:30:37;;;;;;;41.60;8.43;;;14.90;28.10;;;;;;10421062;28;20252;-71
2024/03/30 04:35:39;;;;;;;34.63;7.63;;;14.90;27.90;;;;;;10422364;28;20689;-71
2024/03/30 04:40:43;;;;;;;36.90;8.60;;;14.80;28.00;;;;;;10422917;28;20251;-72
2024/03/30 04:45:45;;;;;;;34.30;7.33;;;14.80;28.20;;;;;;10442494;28;20264;-72
2024/03/30 04:50:47;;;;;;;38.57;7.50;;;14.80;27.90;;;;;;10423945;28;20245;-71
2024/03/30 04:55:52;;;;;;;37.67;7.37;;;14.80;27.80;;;;;;10425682;28;20233;-71
2024/03/30 05:01:00;;;;;;;34.87;6.97;;;14.90;27.80;;;;;;10423718;28;20281;-71
2024/03/30 05:06:04;;;;;;;43.07;7.50;;;14.90;28.20;;;;;;10416813;28;20769;-71
2024/03/30 05:11:07;;;;;;;28.97;6.27;;;14.90;28.20;;;;;;10438345;28;20256;-71
2024/03/30 05:16:10;;;;;;;37.73;7.23;;;14.90;28.10;;;;;;10434004;28;20256;-71
2024/03/30 05:21:13;;;;;;;32.13;5.67;;;14.90;28.00;;;;;;10419145;28;20660;-71
2024/03/30 05:26:16;;;;;;;37.37;7.43;;;14.90;27.80;;;;;;10433859;28;20770;-71
2024/03/30 05:31:22;;;;;;;40.60;7.67;;;14.90;27.70;;;;;;10415743;28;21065;-71
2024/03/30 05:36:24;;;;;;;45.43;8.53;;;14.90;27.40;;;;;;10432804;28;20242;-71
2024/03/30 05:41:28;;;;;;;39.43;7.53;;;15.00;27.40;;;;;;10416812;28;20252;-71
2024/03/30 05:46:30;;;;;;;35.30;7.67;;;15.00;27.40;;;;;;10419885;28;20253;-71
2024/03/30 05:51:32;;;;;;;32.60;6.57;;;15.20;27.50;;;;;;10419765;28;20252;-71
2024/03/30 05:56:36;;;;;;;41.27;12.47;;;15.30;27.40;;;;;;10420465;28;20272;-71
2024/03/30 06:01:38;;;;;;;42.30;11.57;;;15.40;27.00;;;;;;10426049;28;20305;-71
2024/03/30 06:06:40;;;;;;;36.43;8.07;;;15.40;27.10;;;;;;10422255;28;20312;-71
2024/03/30 06:11:44;;;;;;;37.27;7.73;;;15.50;27.20;;;;;;10420588;28;20673;-71
2024/03/30 06:16:48;;;;;;;28.90;6.27;;;15.60;26.80;;;;;;10423511;28;20222;-71
2024/03/30 06:21:51;;;;;;;36.73;8.30;;;15.70;27.10;;;;;;10419045;28;20841;-71
2024/03/30 06:26:54;;;;;;;36.83;8.77;;;15.80;27.10;;;;;;10416514;28;20253;-71
2024/03/30 06:31:56;;;;;;;38.50;8.83;;;15.90;26.80;;;;;;10410890;28;20260;-71
2024/03/30 06:36:59;;;;;;;39.00;8.10;;;15.90;27.80;;;;;;10417839;28;20309;-71
2024/03/30 06:47:24;;;;;;;39.63;7.27;;;16.00;26.30;;;;;;10421315;28;20251;-71
2024/03/30 06:52:26;;;;;;;37.37;7.00;;;16.10;27.00;;;;;;10412978;28;20636;-71
2024/03/30 06:57:30;;;;;;;36.47;6.63;;;16.20;27.20;;;;;;10419298;28;20255;-71
2024/03/30 07:02:33;;;;;;;37.70;5.97;;;16.30;27.00;;;;;;10419170;28;20263;-71
2024/03/30 07:07:35;;;;;;;32.40;7.33;;;16.40;27.30;;;;;;10418093;28;20253;-71
2024/03/30 07:12:39;;;;;;;26.27;5.93;;;16.40;27.00;;;;;;10416151;28;20261;-71
2024/03/30 07:17:41;;;;;;;31.73;6.30;;;16.50;26.90;;;;;;10433891;28;20252;-71
2024/03/30 07:22:44;;;;;;;38.03;6.60;;;16.50;27.00;;;;;;10421924;28;20315;-72
2024/03/30 07:27:48;;;;;;;29.13;5.93;;;16.60;26.70;;;;;;10421534;28;20249;-71
2024/03/30 07:32:50;;;;;;;31.53;5.80;;;16.70;26.60;;;;;;10413473;28;20339;-71
2024/03/30 07:37:52;;;;;;;27.57;5.20;;;16.90;26.70;;;;;;10418226;28;20271;-71
2024/03/30 07:42:55;;;;;;;30.03;5.80;;;17.10;26.80;;;;;;10416002;28;20785;-71
2024/03/30 07:47:58;;;;;;;33.80;5.63;;;17.20;26.30;;;;;;10415680;28;20245;-71
2024/03/30 07:53:00;;;;;;;34.67;6.30;;;17.50;26.40;;;;;;10420064;28;20256;-71
2024/03/30 07:58:04;;;;;;;29.77;5.80;;;17.60;26.30;;;;;;10432232;28;20253;-71
2024/03/30 08:03:07;;;;;;;25.53;5.37;;;17.80;25.80;;;;;;10426740;28;20679;-71
2024/03/30 08:08:10;;;;;;;21.27;5.20;;;18.00;25.80;;;;;;10426778;28;20675;-71
2024/03/30 08:13:13;;;;;;;31.10;5.47;;;18.30;25.60;;;;;;10425547;28;20253;-71
2024/03/30 08:18:15;;;;;;;35.27;5.67;;;18.60;24.80;;;;;;10423239;28;20264;-71
2024/03/30 08:23:18;;;;;;;25.33;4.43;;;19.00;24.60;;;;;;10419763;28;20257;-71
2024/03/30 08:28:22;;;;;;;32.83;5.07;;;19.30;24.80;;;;;;10421794;28;20246;-71
2024/03/30 08:33:24;;;;;;;32.07;5.57;;;19.70;24.30;;;;;;10421758;28;20271;-71
2024/03/30 08:38:26;;;;;;;23.83;4.70;;;20.20;24.10;;;;;;10423342;28;20310;-71
2024/03/30 08:43:29;;;;;;;25.83;4.50;;;20.50;23.90;;;;;;10426205;28;20253;-71
2024/03/30 08:48:33;;;;;;;23.60;4.47;;;20.80;23.00;;;;;;10437043;28;20249;-71
2024/03/30 08:53:35;;;;;;;28.27;5.13;;;21.10;23.20;;;;;;10427377;28;20659;-72
2024/03/30 08:58:40;;;;;;;21.80;4.13;;;21.40;22.80;;;;;;10420715;28;20783;-72
2024/03/30 09:03:42;;;;;;;30.27;5.60;;;21.70;21.20;;;;;;10418435;28;20701;-71
2024/03/30 09:08:45;;;;;;;22.57;4.73;;;21.90;21.10;;;;;;10420370;28;20292;-72
2024/03/30 09:13:49;;;;;;;23.13;4.20;;;22.10;21.30;;;;;;10421759;28;20241;-69
2024/03/30 09:18:51;;;;;;;32.43;5.63;;;22.20;20.80;;;;;;10416920;28;20245;-69
2024/03/30 09:23:53;;;;;;;24.10;4.63;;;22.40;20.60;;;;;;10418106;28;20245;-69
2024/03/30 09:28:56;;;;;;;27.80;4.57;;;22.60;20.60;;;;;;10429431;28;20248;-69
2024/03/30 09:33:59;;;;;;;32.30;5.70;;;22.80;20.00;;;;;;10417665;28;20241;-69
2024/03/30 09:39:01;;;;;;;26.27;4.80;;;22.90;19.60;;;;;;10425354;28;20233;-68
2024/03/30 09:44:06;;;;;;;24.30;5.53;;;23.10;19.70;;;;;;10423437;28;20299;-70
2024/03/30 09:49:09;;;;;;;28.23;5.77;;;23.20;18.40;;;;;;10417794;28;20892;-70
2024/03/30 09:54:13;;;;;;;23.20;5.03;;;23.30;19.20;;;;;;10421074;28;20393;-70
2024/03/30 09:59:18;;;;;;;26.63;5.30;;;23.50;19.10;;;;;;10423391;28;20252;-70
2024/03/30 10:04:20;;;;;;;33.23;5.20;;;23.70;18.50;;;;;;10425937;28;20785;-70
2024/03/30 10:09:26;;;;;;;25.90;5.63;;;23.80;18.60;;;;;;10420527;28;20279;-71
2024/03/30 10:14:34;;;;;;;27.87;5.10;;;24.00;17.80;;;;;;10425936;28;20727;-71
2024/03/30 10:19:36;;;;;;;31.00;4.87;;;24.10;17.40;;;;;;10415609;28;20259;-71
2024/03/30 10:24:39;;;;;;;25.33;4.57;;;24.20;18.00;;;;;;10417312;28;20734;-71
2024/03/30 10:29:45;;;;;;;20.47;4.97;;;24.30;18.10;;;;;;10413837;28;20292;-71
2024/03/30 10:34:48;;;;;;;25.77;4.93;;;24.40;17.10;;;;;;10416922;28;20244;-71
2024/03/30 10:39:50;;;;;;;20.57;4.53;;;24.60;18.30;;;;;;10416569;28;20723;-71
2024/03/30 10:44:55;;;;;;;23.57;4.43;;;24.70;17.80;;;;;;10418227;28;20306;-71
2024/03/30 10:49:58;;;;;;;25.50;4.67;;;24.80;17.20;;;;;;10417148;28;20240;-71
2024/03/30 10:55:01;;;;;;;27.90;4.77;;;24.90;16.40;;;;;;10417758;28;20272;-71
2024/03/30 11:00:10;;;;;;;26.23;4.57;;;25.00;16.80;;;;;;10419273;28;20295;-71
2024/03/30 11:05:13;;;;;;;22.60;4.80;;;25.10;16.20;;;;;;10432791;28;20679;-70
2024/03/30 11:10:16;;;;;;;22.47;4.53;;;25.10;16.10;;;;;;10419196;28;20727;-70
2024/03/30 11:15:23;;;;;;;22.57;4.33;;;25.20;16.20;;;;;;10416799;28;20248;-70
2024/03/30 11:20:32;;;;;;;22.27;4.83;;;25.30;15.00;;;;;;10417118;28;20249;-70
2024/03/30 11:25:37;;;;;;;25.03;5.30;;;25.30;15.30;;;;;;10420842;28;20246;-70
2024/03/30 11:30:45;;;;;;;21.80;4.20;;;25.40;15.80;;;;;;10414136;28;20303;-70
2024/03/30 11:35:59;;;;;;;26.30;4.77;;;25.50;15.30;;;;;;10425275;28;20253;-70
2024/03/30 11:41:03;;;;;;;21.07;4.90;;;25.60;14.30;;;;;;10428701;28;20260;-70
2024/03/30 11:46:08;;;;;;;20.87;4.17;;;25.70;15.60;;;;;;10419652;28;20678;-71
2024/03/30 11:51:16;;;;;;;15.17;4.00;;;25.70;14.60;;;;;;10423167;28;20253;-71
2024/03/30 11:56:18;;;;;;;24.50;4.80;;;25.80;13.20;;;;;;10428559;28;20253;-71
2024/03/30 12:01:21;;;;;;;27.43;4.30;;;25.80;15.10;;;;;;10424069;28;20298;-71
2024/03/30 12:06:24;;;;;;;19.97;3.90;;;25.90;14.10;;;;;;10422427;28;20323;-70
2024/03/30 12:11:26;;;;;;;21.27;4.93;;;25.90;14.90;;;;;;10426271;28;20777;-71
2024/03/30 12:16:30;;;;;;;22.60;4.57;;;26.00;14.70;;;;;;10422848;28;20249;-70
2024/03/30 12:21:33;;;;;;;23.27;4.27;;;26.00;13.80;;;;;;10424323;28;20720;-70
2024/03/30 12:26:36;;;;;;;22.60;4.40;;;26.00;14.70;;;;;;10420957;28;20249;-71
2024/03/30 12:31:41;;;;;;;20.90;4.90;;;26.10;14.50;;;;;;10417970;28;20256;-71
2024/03/30 12:36:44;;;;;;;21.00;4.80;;;26.10;14.10;;;;;;10429251;28;20660;-71
2024/03/30 12:41:48;;;;;;;18.23;4.43;;;26.20;14.00;;;;;;10422201;28;20320;-71
2024/03/30 12:46:51;;;;;;;24.30;5.53;;;26.30;13.80;;;;;;10425821;28;20253;-71
2024/03/30 12:51:56;;;;;;;22.17;4.77;;;26.40;13.40;;;;;;10440316;28;20252;-70
2024/03/30 12:56:59;;;;;;;22.07;4.63;;;26.40;14.00;;;;;;10441884;28;20383;-70
2024/03/30 13:02:06;;;;;;;20.83;4.20;;;26.40;13.90;;;;;;10424487;28;20314;-70
2024/03/30 13:07:08;;;;;;;17.73;3.83;;;26.40;12.50;;;;;;10423224;28;20250;-70
2024/03/30 13:12:11;;;;;;;18.33;3.73;;;26.50;13.90;;;;;;10424261;28;20260;-70
2024/03/30 13:17:17;;;;;;;20.17;4.80;;;26.60;14.10;;;;;;10425084;28;20983;-70
2024/03/30 13:22:19;;;;;;;24.67;4.60;;;26.70;12.60;;;;;;10421311;28;20786;-70
2024/03/30 13:27:21;;;;;;;22.70;3.80;;;26.70;12.80;;;;;;10420571;28;20310;-70
2024/03/30 13:32:26;;;;;;;17.63;3.67;;;26.70;12.60;;;;;;10425727;28;20256;-70
2024/03/30 13:37:28;;;;;;;23.73;4.90;;;26.60;13.00;;;;;;10417217;28;20249;-70
2024/03/30 13:42:31;;;;;;;19.97;3.67;;;26.70;12.50;;;;;;10422221;28;20655;-70
2024/03/30 13:47:34;;;;;;;18.27;3.70;;;26.70;12.70;;;;;;10437010;28;20257;-70
2024/03/30 13:52:37;;;;;;;21.97;3.63;;;26.70;12.20;;;;;;10423695;28;20244;-70
2024/03/30 13:57:39;;;;;;;21.20;3.87;;;26.70;12.30;;;;;;10421121;28;20754;-70
2024/03/30 14:02:42;;;;;;;24.40;3.77;;;26.60;12.30;;;;;;10418311;28;20291;-70
2024/03/30 14:07:45;;;;;;;21.50;4.20;;;26.70;12.00;;;;;;10421136;28;20288;-71
2024/03/30 14:12:47;;;;;;;18.97;4.20;;;26.70;12.30;;;;;;10421329;28;20240;-71
2024/03/30 14:17:50;;;;;;;18.93;4.33;;;26.70;12.40;;;;;;10431163;28;20310;-70
2024/03/30 14:22:52;;;;;;;20.03;3.97;;;26.80;11.70;;;;;;10417472;28;20260;-70
2024/03/30 14:27:55;;;;;;;22.83;4.90;;;26.80;11.80;;;;;;10428874;28;20280;-70
2024/03/30 14:32:58;;;;;;;18.37;4.00;;;26.70;11.80;;;;;;10415585;28;20708;-70
2024/03/30 14:38:00;;;;;;;23.47;3.60;;;26.70;11.60;;;;;;10418929;28;20259;-70
2024/03/30 14:43:03;;;;;;;18.53;4.33;;;26.70;12.10;;;;;;10433439;28;20304;-70
2024/03/30 14:48:07;;;;;;;23.93;4.07;;;26.80;11.80;;;;;;10416839;28;20261;-70
2024/03/30 14:53:10;;;;;;;20.47;4.00;;;26.80;11.60;;;;;;10415956;28;20300;-71
2024/03/30 14:58:12;;;;;;;23.13;4.10;;;26.80;12.20;;;;;;10420279;28;20310;-71
2024/03/30 15:03:16;;;;;;;20.23;4.40;;;26.90;12.30;;;;;;10417530;28;20302;-70
2024/03/30 15:08:19;;;;;;;20.93;4.40;;;26.90;11.80;;;;;;10420919;28;20339;-70
2024/03/30 15:13:21;;;;;;;17.27;3.73;;;26.80;12.00;;;;;;10426609;28;20864;-70
2024/03/30 15:18:24;;;;;;;22.10;4.73;;;26.80;11.90;;;;;;10426448;28;20249;-70
2024/03/30 15:23:27;;;;;;;25.20;4.63;;;26.70;11.90;;;;;;10422328;28;20256;-71
2024/03/30 15:28:29;;;;;;;31.10;5.20;;;26.50;11.90;;;;;;10420712;28;20253;-71
2024/03/30 15:33:32;;;;;;;29.47;5.10;;;26.40;12.10;;;;;;10427169;28;20665;-71
2024/03/30 15:38:34;;;;;;;29.10;6.00;;;26.20;11.80;;;;;;10427251;28;20245;-71
2024/03/30 15:43:37;;;;;;;29.10;5.87;;;26.00;12.10;;;;;;10421131;28;20245;-70
2024/03/30 15:48:40;;;;;;;28.47;4.63;;;25.70;12.10;;;;;;10420928;28;20761;-70
2024/03/30 15:53:42;;;;;;;26.57;4.53;;;25.50;12.00;;;;;;10440831;28;20252;-70
2024/03/30 15:58:45;;;;;;;31.60;5.43;;;25.30;12.40;;;;;;10424587;28;20269;-70
2024/03/30 16:03:48;;;;;;;28.30;5.70;;;25.20;12.70;;;;;;10423736;28;20261;-70
2024/03/30 16:08:50;;;;;;;22.57;5.07;;;25.00;12.50;;;;;;10422218;28;20257;-70
2024/03/30 16:13:52;;;;;;;29.63;5.60;;;24.90;12.90;;;;;;10422789;28;20825;-70
2024/03/30 16:18:56;;;;;;;25.93;5.00;;;24.80;13.00;;;;;;10427429;28;20237;-70
2024/03/30 16:23:58;;;;;;;23.73;5.03;;;24.70;13.10;;;;;;10425104;28;20249;-70
2024/03/30 16:29:00;;;;;;;31.13;6.07;;;24.60;13.20;;;;;;10420390;28;20593;-70
2024/03/30 16:34:04;;;;;;;26.53;5.10;;;24.50;13.40;;;;;;10428075;28;20256;-71
2024/03/30 16:39:07;;;;;;;28.00;4.50;;;24.50;13.20;;;;;;10421679;28;20270;-71
2024/03/30 16:44:09;;;;;;;26.33;4.90;;;24.50;13.40;;;;;;10426298;28;20271;-71
2024/03/30 16:49:13;;;;;;;25.40;4.83;;;24.50;13.90;;;;;;10420801;28;20256;-71
2024/03/30 16:54:15;;;;;;;22.27;4.40;;;24.40;13.80;;;;;;10440285;28;20829;-71
2024/03/30 16:59:17;;;;;;;21.03;5.27;;;24.30;13.80;;;;;;10423041;28;20262;-71
2024/03/30 17:04:21;;;;;;;21.93;4.67;;;24.20;13.80;;;;;;10421478;28;20248;-70
2024/03/30 17:09:23;;;;;;;26.27;5.37;;;24.10;13.90;;;;;;10424501;28;20253;-70
2024/03/30 17:14:26;;;;;;;23.97;5.20;;;24.10;13.90;;;;;;10423730;28;20298;-70
2024/03/30 17:19:30;;;;;;;24.53;4.63;;;24.00;13.80;;;;;;10421116;28;20256;-70
2024/03/30 17:24:32;;;;;;;26.70;4.53;;;23.90;13.60;;;;;;10423271;28;20310;-70
2024/03/30 17:29:34;;;;;;;25.20;5.13;;;23.70;13.70;;;;;;10436873;28;20260;-70
2024/03/30 17:34:38;;;;;;;30.30;6.63;;;23.60;13.80;;;;;;10420643;28;20250;-70
2024/03/30 17:39:43;;;;;;;27.77;5.77;;;23.40;13.70;;;;;;10421151;28;20276;-70
2024/03/30 17:44:48;;;;;;;25.83;5.13;;;23.30;13.70;;;;;;10418807;28;20803;-71
2024/03/30 17:49:52;;;;;;;20.27;4.93;;;23.10;13.70;;;;;;10415509;28;20253;-71
2024/03/30 17:54:54;;;;;;;31.30;4.90;;;23.00;13.90;;;;;;10436314;28;20328;-71
2024/03/30 17:59:56;;;;;;;26.33;4.87;;;22.80;14.10;;;;;;10417038;28;20303;-71
2024/03/30 18:05:00;;;;;;;30.67;5.27;;;22.60;14.20;;;;;;10422332;28;20318;-71
2024/03/30 18:10:02;;;;;;;31.50;5.27;;;22.50;14.30;;;;;;10422493;28;20310;-71
2024/03/30 18:15:05;;;;;;;28.63;5.40;;;22.30;14.30;;;;;;10417599;28;20252;-71
2024/03/30 18:20:09;;;;;;;33.77;5.67;;;22.20;14.40;;;;;;10418889;28;20662;-70
2024/03/30 18:25:12;;;;;;;27.47;5.37;;;22.20;14.30;;;;;;10417977;28;20304;-70
2024/03/30 18:30:14;;;;;;;35.07;5.47;;;22.10;14.50;;;;;;10420686;28;20348;-70
2024/03/30 18:35:18;;;;;;;26.30;4.93;;;22.10;14.60;;;;;;10434343;28;20252;-70
2024/03/30 18:40:20;;;;;;;25.63;6.07;;;22.00;14.90;;;;;;10416745;28;20249;-70
2024/03/30 18:45:23;;;;;;;29.90;5.97;;;22.00;14.80;;;;;;10423648;28;20260;-70
2024/03/30 18:50:26;;;;;;;29.73;6.07;;;21.90;14.80;;;;;;10418902;28;20256;-70
2024/03/30 18:55:28;;;;;;;30.17;6.00;;;21.80;14.80;;;;;;10418065;28;20233;-71
2024/03/30 19:00:31;;;;;;;27.93;6.40;;;21.70;14.90;;;;;;10419104;28;20268;-71
2024/03/30 19:05:34;;;;;;;37.07;7.27;;;21.50;14.90;;;;;;10416852;28;20308;-71
2024/03/30 19:10:36;;;;;;;27.97;6.47;;;21.40;14.90;;;;;;10427931;28;20252;-71
2024/03/30 19:15:39;;;;;;;30.80;6.30;;;21.40;15.10;;;;;;10417837;28;20253;-71
2024/03/30 19:20:42;;;;;;;36.70;6.77;;;21.30;15.10;;;;;;10417400;28;20661;-71
2024/03/30 19:25:44;;;;;;;33.30;6.47;;;21.20;15.00;;;;;;10411650;28;20671;-71
2024/03/30 19:30:53;;;;;;;34.10;6.63;;;21.20;15.00;;;;;;10416885;28;20268;-71
2024/03/30 19:35:58;;;;;;;32.80;6.20;;;21.10;15.20;;;;;;10421411;28;20252;-71
2024/03/30 19:41:07;;;;;;;32.30;6.87;;;21.10;15.20;;;;;;10412897;28;20240;-71
2024/03/30 19:46:09;;;;;;;40.33;7.33;;;21.00;15.10;;;;;;10423204;28;20267;-71
2024/03/30 19:51:12;;;;;;;37.57;7.63;;;20.90;15.40;;;;;;10420411;28;20719;-71
2024/03/30 19:56:15;;;;;;;36.47;7.00;;;20.80;15.70;;;;;;10420841;28;20681;-71
2024/03/30 20:01:17;;;;;;;40.33;8.07;;;20.70;15.60;;;;;;10428877;28;20256;-70
2024/03/30 20:06:23;;;;;;;39.60;11.50;;;20.60;15.60;;;;;;10425750;28;20260;-70
2024/03/30 20:11:27;;;;;;;39.03;11.50;;;20.70;15.60;;;;;;10422240;28;20253;-70
2024/03/30 20:16:30;;;;;;;39.10;11.87;;;20.70;15.60;;;;;;10427968;28;20987;-70
2024/03/30 20:21:33;;;;;;;50.17;15.70;;;20.70;15.60;;;;;;10421914;28;20264;-70
2024/03/30 20:26:36;;;;;;;37.50;10.20;;;20.70;15.60;;;;;;10423878;28;20264;-70
2024/03/30 20:31:38;;;;;;;30.30;7.63;;;20.60;15.80;;;;;;10421957;28;20289;-70
2024/03/30 20:36:42;;;;;;;26.93;6.40;;;20.60;16.70;;;;;;10423474;28;20253;-70
2024/03/30 20:41:44;;;;;;;28.03;6.23;;;20.50;17.50;;;;;;10426024;28;20236;-70
2024/03/30 20:46:46;;;;;;;26.20;5.83;;;20.40;17.40;;;;;;10423583;28;20311;-71
2024/03/30 20:51:50;;;;;;;24.37;5.50;;;20.30;17.80;;;;;;10421695;28;20249;-70
2024/03/30 20:56:52;;;;;;;21.27;5.90;;;20.10;18.40;;;;;;10421051;28;20293;-70
2024/03/30 21:01:54;;;;;;;21.00;5.43;;;19.90;18.30;;;;;;10421842;28;20282;-70
2024/03/30 21:06:58;;;;;;;18.53;4.80;;;19.80;18.70;;;;;;10422114;28;20303;-70
2024/03/30 21:12:00;;;;;;;22.03;5.90;;;19.70;19.40;;;;;;10422795;28;20291;-71
2024/03/30 21:17:03;;;;;;;27.40;5.70;;;19.50;19.30;;;;;;10421731;28;20240;-70
2024/03/30 21:22:07;;;;;;;23.10;4.83;;;19.30;19.60;;;;;;10420702;28;20236;-71
2024/03/30 21:27:09;;;;;;;20.67;5.20;;;19.20;19.90;;;;;;10422336;28;20256;-71
2024/03/30 21:32:11;;;;;;;23.13;5.20;;;19.20;19.70;;;;;;10423887;28;20734;-70
2024/03/30 21:37:15;;;;;;;19.57;4.30;;;19.20;19.90;;;;;;10418822;28;20310;-71
2024/03/30 21:42:18;;;;;;;21.13;5.37;;;19.10;20.00;;;;;;10423767;28;20253;-70
2024/03/30 21:47:20;;;;;;;19.13;4.93;;;19.10;20.20;;;;;;10429573;28;20686;-71
2024/03/30 21:52:24;;;;;;;24.60;5.33;;;19.10;20.00;;;;;;10421961;28;20267;-70
2024/03/30 21:57:29;;;;;;;22.13;5.07;;;18.90;20.60;;;;;;10419227;28;20298;-70
2024/03/30 22:02:31;;;;;;;20.93;5.47;;;18.90;20.40;;;;;;10423577;28;20740;-71
2024/03/30 22:07:35;;;;;;;23.93;5.33;;;18.80;20.50;;;;;;10420862;28;20249;-71
2024/03/30 22:12:37;;;;;;;19.97;5.03;;;18.80;20.80;;;;;;10434199;28;20264;-71
2024/03/30 22:17:40;;;;;;;20.53;5.43;;;18.70;20.50;;;;;;10426341;28;20252;-70
2024/03/30 22:22:43;;;;;;;18.77;4.27;;;18.70;20.70;;;;;;10413365;28;20275;-70
2024/03/30 22:27:46;;;;;;;22.93;4.53;;;18.70;21.10;;;;;;10418290;28;20279;-70
2024/03/30 22:32:48;;;;;;;15.33;4.30;;;18.60;20.80;;;;;;10418528;28;20267;-70
2024/03/30 22:37:52;;;;;;;22.47;4.70;;;18.40;20.80;;;;;;10423721;28;20248;-70
2024/03/30 22:42:54;;;;;;;19.47;4.97;;;18.40;21.40;;;;;;10419085;28;20303;-70
2024/03/30 22:47:56;;;;;;;22.73;5.33;;;18.20;21.20;;;;;;10418924;28;20305;-70
2024/03/30 22:53:00;;;;;;;22.10;4.70;;;18.10;21.30;;;;;;10427008;28;20242;-70
2024/03/30 22:58:02;;;;;;;22.43;4.73;;;17.90;21.80;;;;;;10416827;28;20703;-70
2024/03/30 23:03:05;;;;;;;23.07;5.33;;;17.90;21.70;;;;;;10419049;28;20256;-70
2024/03/30 23:08:08;;;;;;;17.73;4.33;;;17.80;21.80;;;;;;10431175;28;20271;-71
2024/03/30 23:13:11;;;;;;;17.73;4.77;;;17.70;22.10;;;;;;10416049;28;20278;-71
2024/03/30 23:18:13;;;;;;;26.40;5.23;;;17.60;22.00;;;;;;10422378;28;20342;-71
2024/03/30 23:23:17;;;;;;;22.90;4.27;;;17.60;22.10;;;;;;10415980;28;20249;-71
2024/03/30 23:28:21;;;;;;;21.37;5.20;;;17.50;22.60;;;;;;10422457;28;20256;-71
2024/03/30 23:33:24;;;;;;;16.57;4.70;;;17.50;22.40;;;;;;10424192;28;20279;-71
2024/03/30 23:38:27;;;;;;;17.70;4.83;;;17.30;22.20;;;;;;10423518;28;20256;-70
2024/03/30 23:43:30;;;;;;;19.03;4.60;;;17.20;23.00;;;;;;10420916;28;20256;-71
2024/03/30 23:48:32;;;;;;;21.70;5.20;;;17.10;22.70;;;;;;10422259;28;20311;-71
2024/03/30 23:53:35;;;;;;;18.20;4.60;;;17.10;22.80;;;;;;10420392;28;20398;-71
2024/03/30 23:58:38;;;;;;;21.07;4.87;;;17.00;23.30;;;;;;10420255;28;20249;-71
